Список аэропортов
Фактическая погода:

21 апреля, 19:30
Температура: +8°C (+6.8*)
Ветер: южный 2 м/с
Давление: *769 мм
Без существ. явл.
Время (МСК)Темп. СВетерВлажностьДавлениеОблачностьОсадки
15:00+13С, 5 м/с30%1026 гПаясно
16:00+13С, 5 м/с30%1026 гПас прояснениями
17:00+12С, 4 м/с31%1025 гПас прояснениями
18:00+12С, 4 м/с33%1026 гПас прояснениями
19:00+9С, 1 м/с43%1026 гПаоблачно
20:00+7Штиль 52%1026 гПаоблачно
21:00+5ЮВ, 1 м/с58%1026 гПаоблачно
22:00+4Ю, 1 м/с71%1026 гПаоблачно
23:00+3Ю, 1 м/с85%1026 гПаоблачно
22 апреля
00:00+2В, 1 м/с87%1026 гПаоблачно
01:00+2В, 1 м/с90%1026 гПаясно
02:00+1Ю, 1 м/с93%1026 гПамалооблачно
03:00+1ЮЗ, 1 м/с97%1026 гПаясно
04:000СЗ, 2 м/с97%1026 гПаоблачно
05:000СЗ, 2 м/с96%1027 гПаоблачно
06:000СЗ, 2 м/с95%1027 гПаоблачно
07:00+4З, 1 м/с74%1027 гПаоблачно
08:00+9З, 2 м/с56%1026 гПаоблачно
09:00+11З, 3 м/с47%1026 гПаоблачно
10:00+13З, 4 м/с42%1026 гПамалооблачно
11:00+14З, 5 м/с37%1025 гПаясно
12:00+15З, 5 м/с36%1025 гПас прояснениями
13:00+16З, 6 м/с34%1024 гПаоблачно
14:00+16З, 6 м/с33%1024 гПамалооблачно
15:00+16З, 6 м/с33%1023 гПамалооблачно
16:00+16З, 6 м/с33%1023 гПас прояснениями
17:00+15З, 6 м/с35%1022 гПаоблачно
18:00+14З, 6 м/с38%1022 гПаоблачно
19:00+13З, 5 м/с42%1022 гПаоблачно
20:00+11З, 3 м/с51%1022 гПаоблачно
21:00+10З, 3 м/с60%1022 гПас прояснениями
22:00+8З, 3 м/с68%1022 гПас прояснениями
23:00+7З, 2 м/с74%1022 гПамалооблачно
23 апреля
00:00+6З, 3 м/с78%1021 гПаясно
01:00+6З, 3 м/с82%1022 гПаясно
02:00+4З, 2 м/с91%1021 гПаоблачно
03:00+3З, 2 м/с95%1021 гПаоблачно
04:00+2ЮЗ, 2 м/с97%1021 гПаоблачно
05:00+3ЮЗ, 2 м/с94%1021 гПаоблачно
06:00+5З, 2 м/с83%1020 гПаоблачно
07:00+7З, 4 м/с68%1020 гПаоблачносл. дождь
08:00+8З, 3 м/с62%1020 гПаоблачно
09:00+9З, 3 м/с58%1019 гПаоблачно
10:00+10З, 2 м/с56%1019 гПаоблачно
11:00+11ЮЗ, 3 м/с49%1018 гПаоблачно
12:00+12ЮЗ, 5 м/с46%1018 гПаоблачно
13:00+12З, 5 м/с43%1017 гПаоблачно
14:00+12З, 5 м/с48%1017 гПаоблачносл. дождь
15:00+11З, 5 м/с54%1016 гПаоблачно